TAP033 EPWR-LGKR
Flight info
| Callsign | TAP033 |
|---|---|
| Flight time | 1h 52m |
| Altitude | 35000 |
| Route | PEKOT DCT DESEN DCT LABUK DCT XENAK DCT VEBAL DCT BOSNA DCT RODON DCT LIMJA N732 PITAS |
| Aircraft | A321/M-SDE3FGHIRWY/LB1 |
Departure
| Time | 2026-05-07 14:23 |
|---|---|
| Airport | Copernicus Wrocław Airport (EPWR) |
Arrival
| Time | 2026-05-07 16:16 |
|---|---|
| Airport | Corfu Ioannis Kapodistrias International Airport (LGKR) |
| Time | Latitude | Longitude | Altitude | Speed | Heading |
|---|---|---|---|---|---|
| 2026-05-07 13:52 | 51.10886 | 16.87939 | 412 ft | 0 kts | 27° |
| 2026-05-07 14:15 | 51.10872 | 16.87928 | 409 ft | 4 kts | 26° |
| 2026-05-07 14:15 | 51.10848 | 16.87908 | 406 ft | 4 kts | 23° |
| 2026-05-07 14:15 | 51.10826 | 16.87902 | 406 ft | 4 kts | 332° |
| 2026-05-07 14:15 | 51.10809 | 16.87929 | 405 ft | 3 kts | 296° |
| 2026-05-07 14:16 | 51.10808 | 16.87934 | 406 ft | 0 kts | 295° |
| 2026-05-07 14:18 | 51.10808 | 16.87933 | 406 ft | 1 kts | 295° |
| 2026-05-07 14:18 | 51.10838 | 16.87832 | 412 ft | 19 kts | 296° |
| 2026-05-07 14:18 | 51.10898 | 16.87637 | 408 ft | 19 kts | 296° |
| 2026-05-07 14:18 | 51.10948 | 16.87476 | 412 ft | 15 kts | 290° |
| 2026-05-07 14:19 | 51.10895 | 16.87383 | 412 ft | 11 kts | 206° |
| 2026-05-07 14:19 | 51.10827 | 16.87331 | 412 ft | 10 kts | 206° |
| 2026-05-07 14:19 | 51.10748 | 16.87269 | 409 ft | 13 kts | 206° |
| 2026-05-07 14:19 | 51.10675 | 16.87266 | 411 ft | 11 kts | 137° |
| 2026-05-07 14:20 | 51.10609 | 16.87470 | 412 ft | 36 kts | 115° |
| 2026-05-07 14:20 | 51.10457 | 16.87972 | 413 ft | 61 kts | 115° |
| 2026-05-07 14:20 | 51.10265 | 16.88594 | 412 ft | 62 kts | 116° |
| 2026-05-07 14:20 | 51.10098 | 16.89141 | 414 ft | 39 kts | 116° |
| 2026-05-07 14:21 | 51.10002 | 16.89451 | 406 ft | 28 kts | 115° |
| 2026-05-07 14:21 | 51.09914 | 16.89676 | 413 ft | 11 kts | 127° |
| 2026-05-07 14:21 | 51.09888 | 16.89770 | 411 ft | 6 kts | 68° |
| 2026-05-07 14:21 | 51.09909 | 16.89748 | 413 ft | 2 kts | 297° |
| 2026-05-07 14:22 | 51.09913 | 16.89737 | 413 ft | 1 kts | 297° |
| 2026-05-07 14:22 | 51.09916 | 16.89727 | 411 ft | 4 kts | 297° |
| 2026-05-07 14:22 | 51.09998 | 16.89461 | 410 ft | 60 kts | 296° |
| 2026-05-07 14:22 | 51.10278 | 16.88548 | 409 ft | 121 kts | 296° |
| 2026-05-07 14:23 | 51.10703 | 16.87135 | 575 ft | 153 kts | 297° |
| 2026-05-07 14:23 | 51.11155 | 16.85578 | 1212 ft | 157 kts | 297° |
| 2026-05-07 14:23 | 51.11642 | 16.84012 | 1894 ft | 158 kts | 300° |
| 2026-05-07 14:23 | 51.12175 | 16.82373 | 2295 ft | 176 kts | 298° |
| 2026-05-07 14:24 | 51.12750 | 16.80534 | 2619 ft | 196 kts | 296° |
| 2026-05-07 14:24 | 51.13377 | 16.78477 | 2825 ft | 218 kts | 296° |
| 2026-05-07 14:24 | 51.14076 | 16.76168 | 3118 ft | 243 kts | 295° |
| 2026-05-07 14:24 | 51.14827 | 16.73685 | 3785 ft | 252 kts | 294° |
| 2026-05-07 14:25 | 51.15593 | 16.71153 | 4587 ft | 256 kts | 293° |
| 2026-05-07 14:25 | 51.16368 | 16.68586 | 5403 ft | 258 kts | 292° |
| 2026-05-07 14:25 | 51.16849 | 16.65844 | 6181 ft | 259 kts | 271° |
| 2026-05-07 14:25 | 51.16558 | 16.63034 | 6906 ft | 260 kts | 246° |
| 2026-05-07 14:26 | 51.15512 | 16.60688 | 7632 ft | 264 kts | 221° |
| 2026-05-07 14:26 | 51.13891 | 16.59293 | 8376 ft | 270 kts | 196° |
| 2026-05-07 14:26 | 51.11995 | 16.59179 | 9105 ft | 278 kts | 174° |
| 2026-05-07 14:26 | 51.10099 | 16.59655 | 9852 ft | 281 kts | 174° |
| 2026-05-07 14:27 | 51.08145 | 16.60158 | 10300 ft | 294 kts | 174° |
| 2026-05-07 14:27 | 51.06047 | 16.60689 | 10428 ft | 316 kts | 174° |
| 2026-05-07 14:27 | 51.03800 | 16.61254 | 10555 ft | 337 kts | 174° |
| 2026-05-07 14:27 | 51.01421 | 16.61848 | 10717 ft | 354 kts | 173° |
| 2026-05-07 14:28 | 50.98960 | 16.62466 | 11187 ft | 361 kts | 173° |
| 2026-05-07 14:28 | 50.96465 | 16.63095 | 11777 ft | 364 kts | 173° |
| 2026-05-07 14:28 | 50.93957 | 16.63730 | 12392 ft | 366 kts | 173° |
| 2026-05-07 14:28 | 50.91432 | 16.64369 | 13003 ft | 369 kts | 173° |
| 2026-05-07 14:29 | 50.88894 | 16.65007 | 13604 ft | 371 kts | 173° |
| 2026-05-07 14:29 | 50.86335 | 16.65644 | 14148 ft | 373 kts | 173° |
| 2026-05-07 14:29 | 50.83766 | 16.66276 | 14679 ft | 374 kts | 173° |
| 2026-05-07 14:29 | 50.81188 | 16.66912 | 15190 ft | 376 kts | 173° |
| 2026-05-07 14:30 | 50.78598 | 16.67552 | 15677 ft | 378 kts | 173° |
| 2026-05-07 14:30 | 50.75996 | 16.68195 | 16142 ft | 380 kts | 173° |
| 2026-05-07 14:30 | 50.73386 | 16.68842 | 16590 ft | 381 kts | 173° |
| 2026-05-07 14:30 | 50.70750 | 16.69490 | 17030 ft | 383 kts | 173° |
| 2026-05-07 14:31 | 50.68110 | 16.70139 | 17475 ft | 386 kts | 173° |
| 2026-05-07 14:31 | 50.65451 | 16.70793 | 17910 ft | 388 kts | 173° |
| 2026-05-07 14:31 | 50.62776 | 16.71447 | 18317 ft | 390 kts | 173° |
| 2026-05-07 14:31 | 50.60088 | 16.72102 | 18703 ft | 392 kts | 173° |
| 2026-05-07 14:32 | 50.57393 | 16.72761 | 19130 ft | 392 kts | 173° |
| 2026-05-07 14:32 | 50.54695 | 16.73423 | 19562 ft | 393 kts | 173° |
| 2026-05-07 14:32 | 50.51991 | 16.74092 | 20023 ft | 393 kts | 173° |
| 2026-05-07 14:32 | 50.49283 | 16.74761 | 20474 ft | 394 kts | 173° |
| 2026-05-07 14:33 | 50.46569 | 16.75427 | 20917 ft | 395 kts | 174° |
| 2026-05-07 14:33 | 50.43854 | 16.76089 | 21355 ft | 396 kts | 174° |
| 2026-05-07 14:33 | 50.41128 | 16.76752 | 21829 ft | 396 kts | 174° |
| 2026-05-07 14:33 | 50.38401 | 16.77420 | 22286 ft | 397 kts | 174° |
| 2026-05-07 14:34 | 50.35665 | 16.78083 | 22743 ft | 398 kts | 174° |
| 2026-05-07 14:34 | 50.32931 | 16.78738 | 23167 ft | 399 kts | 174° |
| 2026-05-07 14:34 | 50.30187 | 16.79402 | 23580 ft | 399 kts | 174° |
| 2026-05-07 14:34 | 50.27438 | 16.80068 | 23872 ft | 400 kts | 174° |
| 2026-05-07 14:35 | 50.24681 | 16.80734 | 24207 ft | 401 kts | 174° |
| 2026-05-07 14:35 | 50.21915 | 16.81405 | 24555 ft | 403 kts | 174° |
| 2026-05-07 14:35 | 50.19178 | 16.82070 | 24887 ft | 404 kts | 174° |
| 2026-05-07 14:35 | 50.16404 | 16.82737 | 25226 ft | 405 kts | 174° |
| 2026-05-07 14:36 | 50.13610 | 16.83408 | 25565 ft | 407 kts | 174° |
| 2026-05-07 14:36 | 50.10809 | 16.84084 | 25874 ft | 408 kts | 174° |
| 2026-05-07 14:36 | 50.08000 | 16.84764 | 26169 ft | 409 kts | 174° |
| 2026-05-07 14:36 | 50.05183 | 16.85444 | 26453 ft | 410 kts | 174° |
| 2026-05-07 14:37 | 50.02359 | 16.86121 | 26706 ft | 411 kts | 174° |
| 2026-05-07 14:37 | 49.96689 | 16.87464 | 27189 ft | 414 kts | 174° |
| 2026-05-07 14:37 | 49.93840 | 16.88140 | 27401 ft | 415 kts | 174° |
| 2026-05-07 14:38 | 49.90988 | 16.88819 | 27667 ft | 414 kts | 174° |
| 2026-05-07 14:38 | 49.88146 | 16.89496 | 27985 ft | 413 kts | 174° |
| 2026-05-07 14:38 | 49.85308 | 16.90173 | 28289 ft | 412 kts | 174° |
| 2026-05-07 14:38 | 49.82478 | 16.90848 | 28585 ft | 411 kts | 174° |
| 2026-05-07 14:39 | 49.79656 | 16.91526 | 28880 ft | 410 kts | 174° |
| 2026-05-07 14:39 | 49.76841 | 16.92198 | 29178 ft | 409 kts | 174° |
| 2026-05-07 14:39 | 49.74028 | 16.92865 | 29467 ft | 408 kts | 174° |
| 2026-05-07 14:39 | 49.71217 | 16.93530 | 29747 ft | 408 kts | 174° |
| 2026-05-07 14:40 | 49.68418 | 16.94193 | 30035 ft | 407 kts | 174° |
| 2026-05-07 14:40 | 49.65624 | 16.94852 | 30281 ft | 406 kts | 174° |
| 2026-05-07 14:40 | 49.62864 | 16.95497 | 30497 ft | 406 kts | 174° |
| 2026-05-07 14:40 | 49.60072 | 16.96150 | 30722 ft | 406 kts | 174° |
| 2026-05-07 14:41 | 49.57277 | 16.96805 | 30953 ft | 406 kts | 175° |
| 2026-05-07 14:41 | 49.54488 | 16.97459 | 31184 ft | 406 kts | 175° |
| 2026-05-07 14:41 | 49.51696 | 16.98113 | 31418 ft | 406 kts | 175° |
| 2026-05-07 14:41 | 49.48902 | 16.98768 | 31646 ft | 406 kts | 175° |
| 2026-05-07 14:42 | 49.46108 | 16.99423 | 31890 ft | 406 kts | 175° |
| 2026-05-07 14:42 | 49.43321 | 17.00078 | 32123 ft | 406 kts | 175° |
| 2026-05-07 14:42 | 49.40532 | 17.00733 | 32357 ft | 406 kts | 175° |
| 2026-05-07 14:42 | 49.37741 | 17.01380 | 32601 ft | 405 kts | 175° |
| 2026-05-07 14:43 | 49.34952 | 17.02024 | 32842 ft | 405 kts | 175° |
| 2026-05-07 14:43 | 49.32169 | 17.02667 | 33084 ft | 405 kts | 175° |
| 2026-05-07 14:43 | 49.29384 | 17.03311 | 33319 ft | 404 kts | 175° |
| 2026-05-07 14:43 | 49.26600 | 17.03958 | 33573 ft | 404 kts | 175° |
| 2026-05-07 14:44 | 49.23821 | 17.04610 | 33794 ft | 404 kts | 175° |
| 2026-05-07 14:44 | 49.21044 | 17.05255 | 34000 ft | 404 kts | 175° |
| 2026-05-07 14:44 | 49.18261 | 17.05900 | 34181 ft | 405 kts | 175° |
| 2026-05-07 14:44 | 49.15476 | 17.06548 | 34338 ft | 405 kts | 175° |
| 2026-05-07 14:45 | 49.12678 | 17.07199 | 34484 ft | 406 kts | 175° |
| 2026-05-07 14:45 | 49.09882 | 17.07847 | 34632 ft | 407 kts | 175° |
| 2026-05-07 14:45 | 49.07079 | 17.08491 | 34779 ft | 408 kts | 175° |
| 2026-05-07 14:45 | 49.04305 | 17.09124 | 34921 ft | 409 kts | 175° |
| 2026-05-07 14:46 | 48.98677 | 17.10405 | 34956 ft | 409 kts | 175° |
| 2026-05-07 14:46 | 48.93056 | 17.11700 | 34959 ft | 409 kts | 175° |
| 2026-05-07 14:47 | 48.87436 | 17.12988 | 34958 ft | 408 kts | 175° |
| 2026-05-07 14:47 | 48.81810 | 17.14271 | 34954 ft | 408 kts | 175° |
| 2026-05-07 14:48 | 48.76190 | 17.15551 | 34951 ft | 408 kts | 175° |
| 2026-05-07 14:48 | 48.71521 | 17.16607 | 34950 ft | 408 kts | 175° |
| 2026-05-07 14:49 | 48.65897 | 17.17875 | 34952 ft | 408 kts | 175° |
| 2026-05-07 14:49 | 48.60280 | 17.19147 | 34952 ft | 408 kts | 175° |
| 2026-05-07 14:50 | 48.54710 | 17.20408 | 34951 ft | 408 kts | 175° |
| 2026-05-07 14:50 | 48.49098 | 17.21677 | 34950 ft | 408 kts | 175° |
| 2026-05-07 14:51 | 48.43483 | 17.22943 | 34954 ft | 408 kts | 175° |
| 2026-05-07 14:51 | 48.37878 | 17.24196 | 34953 ft | 407 kts | 175° |
| 2026-05-07 14:52 | 48.32265 | 17.25452 | 34956 ft | 407 kts | 176° |
| 2026-05-07 14:52 | 48.26656 | 17.26702 | 34957 ft | 407 kts | 176° |
| 2026-05-07 14:53 | 48.21053 | 17.27949 | 34956 ft | 407 kts | 176° |
| 2026-05-07 14:53 | 48.15486 | 17.29184 | 34955 ft | 407 kts | 176° |
| 2026-05-07 14:54 | 48.09875 | 17.29974 | 34955 ft | 403 kts | 184° |
| 2026-05-07 14:54 | 48.04268 | 17.29957 | 34957 ft | 403 kts | 184° |
| 2026-05-07 14:55 | 47.98654 | 17.29953 | 34956 ft | 403 kts | 184° |
| 2026-05-07 14:55 | 47.93040 | 17.29943 | 34960 ft | 403 kts | 184° |
| 2026-05-07 14:56 | 47.87426 | 17.29934 | 34964 ft | 404 kts | 184° |
| 2026-05-07 14:56 | 47.81810 | 17.29924 | 34968 ft | 404 kts | 184° |
| 2026-05-07 14:57 | 47.76194 | 17.29923 | 34967 ft | 404 kts | 184° |
| 2026-05-07 14:57 | 47.70574 | 17.29915 | 34971 ft | 404 kts | 184° |
| 2026-05-07 14:58 | 47.64997 | 17.29897 | 34977 ft | 404 kts | 184° |
| 2026-05-07 14:58 | 47.59380 | 17.29890 | 34975 ft | 404 kts | 184° |
| 2026-05-07 14:59 | 47.53761 | 17.29893 | 34963 ft | 404 kts | 184° |
| 2026-05-07 14:59 | 47.48138 | 17.29881 | 34974 ft | 404 kts | 185° |
| 2026-05-07 15:00 | 47.42514 | 17.29858 | 34970 ft | 404 kts | 185° |
| 2026-05-07 15:00 | 47.36886 | 17.29854 | 34979 ft | 405 kts | 185° |
| 2026-05-07 15:01 | 47.31249 | 17.29852 | 34963 ft | 404 kts | 185° |
| 2026-05-07 15:01 | 47.25623 | 17.29847 | 34968 ft | 404 kts | 185° |
| 2026-05-07 15:02 | 47.19993 | 17.29845 | 34965 ft | 405 kts | 183° |
| 2026-05-07 15:02 | 47.17178 | 17.30417 | 34967 ft | 413 kts | 172° |
| 2026-05-07 15:02 | 47.14382 | 17.31443 | 34967 ft | 414 kts | 172° |
| 2026-05-07 15:03 | 47.08794 | 17.33559 | 34968 ft | 415 kts | 171° |
| 2026-05-07 15:03 | 47.03199 | 17.35706 | 34973 ft | 416 kts | 171° |
| 2026-05-07 15:04 | 46.97599 | 17.37821 | 34976 ft | 416 kts | 171° |
| 2026-05-07 15:04 | 46.91994 | 17.39921 | 34973 ft | 416 kts | 171° |
| 2026-05-07 15:05 | 46.86383 | 17.42018 | 34978 ft | 416 kts | 171° |
| 2026-05-07 15:05 | 46.80772 | 17.44123 | 34985 ft | 416 kts | 171° |
| 2026-05-07 15:06 | 46.75163 | 17.46226 | 34978 ft | 416 kts | 171° |
| 2026-05-07 15:06 | 46.69546 | 17.48312 | 34979 ft | 416 kts | 171° |
| 2026-05-07 15:07 | 46.63933 | 17.50407 | 34980 ft | 416 kts | 171° |
| 2026-05-07 15:07 | 46.58355 | 17.52480 | 34981 ft | 416 kts | 171° |
| 2026-05-07 15:08 | 46.52742 | 17.54551 | 34983 ft | 416 kts | 171° |
| 2026-05-07 15:08 | 46.47125 | 17.56622 | 34985 ft | 416 kts | 171° |
| 2026-05-07 15:09 | 46.41511 | 17.58699 | 34985 ft | 416 kts | 171° |
| 2026-05-07 15:09 | 46.35892 | 17.60770 | 34981 ft | 417 kts | 171° |
| 2026-05-07 15:10 | 46.30272 | 17.62830 | 34986 ft | 417 kts | 171° |
| 2026-05-07 15:10 | 46.24648 | 17.64886 | 34984 ft | 417 kts | 171° |
| 2026-05-07 15:11 | 46.19023 | 17.66943 | 34994 ft | 418 kts | 171° |
| 2026-05-07 15:11 | 46.13383 | 17.68999 | 34983 ft | 418 kts | 171° |
| 2026-05-07 15:12 | 46.07739 | 17.71057 | 34982 ft | 419 kts | 171° |
| 2026-05-07 15:12 | 46.02081 | 17.73103 | 34981 ft | 419 kts | 171° |
| 2026-05-07 15:13 | 45.96414 | 17.75127 | 34989 ft | 420 kts | 171° |
| 2026-05-07 15:13 | 45.90732 | 17.77158 | 34982 ft | 421 kts | 171° |
| 2026-05-07 15:14 | 45.85080 | 17.79181 | 34979 ft | 422 kts | 171° |
| 2026-05-07 15:14 | 45.79382 | 17.81220 | 34981 ft | 423 kts | 171° |
| 2026-05-07 15:15 | 45.73672 | 17.83250 | 34982 ft | 423 kts | 171° |
| 2026-05-07 15:15 | 45.67944 | 17.85285 | 34984 ft | 424 kts | 171° |
| 2026-05-07 15:16 | 45.62208 | 17.87314 | 34984 ft | 425 kts | 171° |
| 2026-05-07 15:16 | 45.56465 | 17.89346 | 34989 ft | 425 kts | 171° |
| 2026-05-07 15:17 | 45.50719 | 17.91374 | 34989 ft | 426 kts | 171° |
| 2026-05-07 15:17 | 45.44955 | 17.93405 | 34989 ft | 427 kts | 171° |
| 2026-05-07 15:18 | 45.39182 | 17.95435 | 34996 ft | 429 kts | 171° |
| 2026-05-07 15:18 | 45.33393 | 17.97471 | 34989 ft | 428 kts | 171° |
| 2026-05-07 15:19 | 45.27647 | 17.99476 | 34988 ft | 429 kts | 171° |
| 2026-05-07 15:19 | 45.21845 | 18.01489 | 34989 ft | 430 kts | 171° |
| 2026-05-07 15:20 | 45.16038 | 18.03518 | 34989 ft | 431 kts | 171° |
| 2026-05-07 15:20 | 45.10213 | 18.05549 | 34994 ft | 431 kts | 171° |
| 2026-05-07 15:21 | 45.04384 | 18.07572 | 34994 ft | 432 kts | 171° |
| 2026-05-07 15:21 | 44.98535 | 18.09603 | 34995 ft | 433 kts | 171° |
| 2026-05-07 15:22 | 44.92677 | 18.11625 | 34993 ft | 433 kts | 171° |
| 2026-05-07 15:22 | 44.86811 | 18.13649 | 34993 ft | 434 kts | 171° |
| 2026-05-07 15:23 | 44.80978 | 18.15660 | 34996 ft | 435 kts | 171° |
| 2026-05-07 15:23 | 44.75094 | 18.17679 | 34994 ft | 435 kts | 171° |
| 2026-05-07 15:24 | 44.69209 | 18.19696 | 34992 ft | 436 kts | 171° |
| 2026-05-07 15:24 | 44.63311 | 18.21711 | 34991 ft | 436 kts | 171° |
| 2026-05-07 15:25 | 44.57402 | 18.23721 | 34993 ft | 437 kts | 171° |
| 2026-05-07 15:25 | 44.51487 | 18.25731 | 35002 ft | 438 kts | 171° |
| 2026-05-07 15:26 | 44.45564 | 18.27754 | 35001 ft | 439 kts | 171° |
| 2026-05-07 15:26 | 44.39630 | 18.29766 | 35003 ft | 439 kts | 171° |
| 2026-05-07 15:27 | 44.33724 | 18.31763 | 35006 ft | 440 kts | 171° |
| 2026-05-07 15:27 | 44.27770 | 18.33772 | 35007 ft | 441 kts | 172° |
| 2026-05-07 15:28 | 44.21807 | 18.35778 | 35011 ft | 441 kts | 172° |
| 2026-05-07 15:28 | 44.15839 | 18.37794 | 35015 ft | 442 kts | 172° |
| 2026-05-07 15:29 | 44.09853 | 18.39812 | 35019 ft | 443 kts | 172° |
| 2026-05-07 15:29 | 44.03861 | 18.41818 | 35023 ft | 443 kts | 172° |
| 2026-05-07 15:30 | 43.97857 | 18.43823 | 35024 ft | 444 kts | 172° |
| 2026-05-07 15:30 | 43.91845 | 18.45818 | 35026 ft | 445 kts | 172° |
| 2026-05-07 15:31 | 43.85817 | 18.47826 | 35025 ft | 446 kts | 172° |
| 2026-05-07 15:31 | 43.79789 | 18.49830 | 35025 ft | 446 kts | 172° |
| 2026-05-07 15:32 | 43.73745 | 18.51833 | 35028 ft | 447 kts | 173° |
| 2026-05-07 15:32 | 43.67734 | 18.53820 | 35031 ft | 448 kts | 173° |
| 2026-05-07 15:33 | 43.61673 | 18.55820 | 35033 ft | 448 kts | 173° |
| 2026-05-07 15:33 | 43.55607 | 18.57809 | 35046 ft | 448 kts | 173° |
| 2026-05-07 15:34 | 43.49539 | 18.59807 | 35049 ft | 448 kts | 173° |
| 2026-05-07 15:34 | 43.43470 | 18.61811 | 35056 ft | 449 kts | 173° |
| 2026-05-07 15:35 | 43.37391 | 18.63798 | 35056 ft | 449 kts | 173° |
| 2026-05-07 15:35 | 43.31315 | 18.65778 | 35059 ft | 449 kts | 173° |
| 2026-05-07 15:36 | 43.25228 | 18.67759 | 35061 ft | 450 kts | 173° |
| 2026-05-07 15:36 | 43.19133 | 18.69743 | 35065 ft | 450 kts | 173° |
| 2026-05-07 15:37 | 43.13036 | 18.71727 | 35067 ft | 450 kts | 173° |
| 2026-05-07 15:37 | 43.06937 | 18.73714 | 35061 ft | 451 kts | 173° |
| 2026-05-07 15:38 | 43.00867 | 18.75675 | 35063 ft | 452 kts | 173° |
| 2026-05-07 15:38 | 42.94751 | 18.77647 | 35068 ft | 452 kts | 173° |
| 2026-05-07 15:39 | 42.88630 | 18.79617 | 35063 ft | 452 kts | 173° |
| 2026-05-07 15:39 | 42.82507 | 18.81583 | 35063 ft | 453 kts | 173° |
| 2026-05-07 15:40 | 42.76374 | 18.83555 | 35062 ft | 453 kts | 173° |
| 2026-05-07 15:40 | 42.70232 | 18.85517 | 35060 ft | 453 kts | 173° |
| 2026-05-07 15:41 | 42.64088 | 18.87475 | 35060 ft | 454 kts | 173° |
| 2026-05-07 15:41 | 42.57935 | 18.89437 | 35059 ft | 455 kts | 173° |
| 2026-05-07 15:42 | 42.51774 | 18.91399 | 35060 ft | 455 kts | 173° |
| 2026-05-07 15:42 | 42.45609 | 18.93353 | 35057 ft | 455 kts | 173° |
| 2026-05-07 15:43 | 42.40477 | 18.94979 | 35051 ft | 456 kts | 173° |
| 2026-05-07 15:43 | 42.34296 | 18.96925 | 35054 ft | 456 kts | 173° |
| 2026-05-07 15:44 | 42.28110 | 18.98881 | 35062 ft | 457 kts | 173° |
| 2026-05-07 15:44 | 42.21921 | 19.00840 | 35060 ft | 457 kts | 174° |
| 2026-05-07 15:45 | 42.15720 | 19.02792 | 35060 ft | 458 kts | 174° |
| 2026-05-07 15:45 | 42.09511 | 19.04734 | 35056 ft | 458 kts | 174° |
| 2026-05-07 15:46 | 42.00192 | 19.07648 | 35055 ft | 459 kts | 174° |
| 2026-05-07 15:47 | 41.93976 | 19.09597 | 35051 ft | 459 kts | 174° |
| 2026-05-07 15:47 | 41.87793 | 19.11519 | 35047 ft | 459 kts | 174° |
| 2026-05-07 15:48 | 41.81564 | 19.13457 | 35049 ft | 460 kts | 175° |
| 2026-05-07 15:48 | 41.75323 | 19.15394 | 35045 ft | 461 kts | 175° |
| 2026-05-07 15:49 | 41.69079 | 19.17325 | 35050 ft | 461 kts | 175° |
| 2026-05-07 15:49 | 41.62820 | 19.19247 | 35047 ft | 462 kts | 175° |
| 2026-05-07 15:50 | 41.56559 | 19.21185 | 35041 ft | 462 kts | 175° |
| 2026-05-07 15:50 | 41.50285 | 19.23132 | 35046 ft | 463 kts | 176° |
| 2026-05-07 15:51 | 41.44011 | 19.25091 | 35039 ft | 464 kts | 175° |
| 2026-05-07 15:51 | 41.37728 | 19.27124 | 35040 ft | 465 kts | 175° |
| 2026-05-07 15:52 | 41.31439 | 19.29175 | 35035 ft | 466 kts | 175° |
| 2026-05-07 15:52 | 41.25134 | 19.31224 | 35035 ft | 467 kts | 176° |
| 2026-05-07 15:53 | 41.18805 | 19.33257 | 35028 ft | 468 kts | 176° |
| 2026-05-07 15:53 | 41.12468 | 19.35278 | 35023 ft | 470 kts | 176° |
| 2026-05-07 15:54 | 41.06099 | 19.37318 | 35022 ft | 471 kts | 176° |
| 2026-05-07 15:54 | 40.99717 | 19.39360 | 35023 ft | 473 kts | 177° |
| 2026-05-07 15:55 | 40.93309 | 19.41405 | 35022 ft | 475 kts | 177° |
| 2026-05-07 15:55 | 40.86915 | 19.43445 | 35015 ft | 477 kts | 177° |
| 2026-05-07 15:56 | 40.80445 | 19.45506 | 34796 ft | 481 kts | 178° |
| 2026-05-07 15:56 | 40.77167 | 19.46539 | 33667 ft | 490 kts | 176° |
| 2026-05-07 15:56 | 40.73841 | 19.47589 | 32716 ft | 491 kts | 175° |
| 2026-05-07 15:56 | 40.70514 | 19.48645 | 31730 ft | 493 kts | 174° |
| 2026-05-07 15:57 | 40.67182 | 19.49701 | 30857 ft | 491 kts | 173° |
| 2026-05-07 15:57 | 40.63876 | 19.50748 | 30051 ft | 487 kts | 172° |
| 2026-05-07 15:57 | 40.60578 | 19.51793 | 28908 ft | 487 kts | 172° |
| 2026-05-07 15:57 | 40.57281 | 19.52862 | 27696 ft | 490 kts | 169° |
| 2026-05-07 15:58 | 40.54028 | 19.54317 | 26440 ft | 495 kts | 165° |
| 2026-05-07 15:58 | 40.50781 | 19.55858 | 25177 ft | 498 kts | 164° |
| 2026-05-07 15:58 | 40.47514 | 19.57411 | 23999 ft | 499 kts | 164° |
| 2026-05-07 15:58 | 40.44274 | 19.58950 | 23104 ft | 491 kts | 164° |
| 2026-05-07 15:59 | 40.41085 | 19.60466 | 22211 ft | 484 kts | 164° |
| 2026-05-07 15:59 | 40.37950 | 19.61957 | 21361 ft | 476 kts | 164° |
| 2026-05-07 15:59 | 40.34856 | 19.63423 | 20558 ft | 469 kts | 164° |
| 2026-05-07 15:59 | 40.31804 | 19.64865 | 19786 ft | 463 kts | 164° |
| 2026-05-07 16:00 | 40.28797 | 19.66283 | 19021 ft | 456 kts | 164° |
| 2026-05-07 16:00 | 40.25835 | 19.67676 | 18259 ft | 450 kts | 163° |
| 2026-05-07 16:00 | 40.22908 | 19.69054 | 17288 ft | 437 kts | 164° |
| 2026-05-07 16:00 | 40.20087 | 19.70383 | 16077 ft | 429 kts | 164° |
| 2026-05-07 16:01 | 40.17319 | 19.71682 | 15663 ft | 415 kts | 164° |
| 2026-05-07 16:01 | 40.14629 | 19.72945 | 15034 ft | 407 kts | 164° |
| 2026-05-07 16:01 | 40.12000 | 19.74180 | 14406 ft | 397 kts | 164° |
| 2026-05-07 16:01 | 40.09422 | 19.75388 | 13832 ft | 389 kts | 164° |
| 2026-05-07 16:02 | 40.06902 | 19.76564 | 13199 ft | 381 kts | 164° |
| 2026-05-07 16:02 | 40.04435 | 19.77715 | 12643 ft | 372 kts | 164° |
| 2026-05-07 16:02 | 40.02053 | 19.78825 | 12099 ft | 365 kts | 163° |
| 2026-05-07 16:02 | 39.99674 | 19.79931 | 11547 ft | 361 kts | 163° |
| 2026-05-07 16:03 | 39.97355 | 19.81012 | 11221 ft | 350 kts | 163° |
| 2026-05-07 16:03 | 39.95121 | 19.82058 | 11094 ft | 333 kts | 163° |
| 2026-05-07 16:03 | 39.92994 | 19.83057 | 10978 ft | 317 kts | 163° |
| 2026-05-07 16:03 | 39.90968 | 19.84008 | 10845 ft | 302 kts | 163° |
| 2026-05-07 16:04 | 39.89031 | 19.84922 | 10679 ft | 291 kts | 163° |
| 2026-05-07 16:04 | 39.87157 | 19.85845 | 10400 ft | 286 kts | 162° |
| 2026-05-07 16:04 | 39.85308 | 19.86779 | 10162 ft | 284 kts | 162° |
| 2026-05-07 16:04 | 39.83472 | 19.87712 | 9977 ft | 282 kts | 162° |
| 2026-05-07 16:05 | 39.81641 | 19.88640 | 9848 ft | 282 kts | 162° |
| 2026-05-07 16:05 | 39.79815 | 19.89562 | 9716 ft | 281 kts | 162° |
| 2026-05-07 16:05 | 39.77992 | 19.90480 | 9575 ft | 280 kts | 162° |
| 2026-05-07 16:05 | 39.76178 | 19.91389 | 9455 ft | 279 kts | 162° |
| 2026-05-07 16:06 | 39.74369 | 19.92296 | 9248 ft | 279 kts | 162° |
| 2026-05-07 16:06 | 39.72567 | 19.93198 | 8920 ft | 276 kts | 161° |
| 2026-05-07 16:06 | 39.70782 | 19.94090 | 8580 ft | 274 kts | 161° |
| 2026-05-07 16:06 | 39.69034 | 19.94967 | 8239 ft | 272 kts | 161° |
| 2026-05-07 16:07 | 39.67275 | 19.95851 | 7904 ft | 270 kts | 161° |
| 2026-05-07 16:07 | 39.65533 | 19.96724 | 7556 ft | 268 kts | 160° |
| 2026-05-07 16:07 | 39.63802 | 19.97591 | 7214 ft | 266 kts | 160° |
| 2026-05-07 16:07 | 39.62082 | 19.98453 | 6889 ft | 264 kts | 160° |
| 2026-05-07 16:08 | 39.60374 | 19.99311 | 6550 ft | 262 kts | 160° |
| 2026-05-07 16:08 | 39.58693 | 20.00149 | 6204 ft | 256 kts | 159° |
| 2026-05-07 16:08 | 39.57045 | 20.00968 | 5879 ft | 251 kts | 159° |
| 2026-05-07 16:08 | 39.55427 | 20.01771 | 5563 ft | 246 kts | 159° |
| 2026-05-07 16:09 | 39.53845 | 20.02558 | 5255 ft | 241 kts | 158° |
| 2026-05-07 16:09 | 39.52302 | 20.03327 | 5065 ft | 232 kts | 158° |
| 2026-05-07 16:09 | 39.50840 | 20.04054 | 5002 ft | 220 kts | 158° |
| 2026-05-07 16:09 | 39.49417 | 20.04762 | 4816 ft | 218 kts | 158° |
| 2026-05-07 16:10 | 39.48022 | 20.05457 | 4560 ft | 211 kts | 158° |
| 2026-05-07 16:10 | 39.46652 | 20.06014 | 4343 ft | 202 kts | 170° |
| 2026-05-07 16:10 | 39.45271 | 20.05983 | 4207 ft | 199 kts | 188° |
| 2026-05-07 16:10 | 39.43975 | 20.05345 | 4065 ft | 202 kts | 207° |
| 2026-05-07 16:11 | 39.42905 | 20.04155 | 3903 ft | 206 kts | 227° |
| 2026-05-07 16:11 | 39.42209 | 20.02519 | 3743 ft | 211 kts | 249° |
| 2026-05-07 16:11 | 39.42004 | 20.00635 | 3583 ft | 215 kts | 270° |
| 2026-05-07 16:11 | 39.42342 | 19.98748 | 3422 ft | 218 kts | 292° |
| 2026-05-07 16:12 | 39.43193 | 19.97129 | 3252 ft | 220 kts | 315° |
| 2026-05-07 16:12 | 39.44481 | 19.96103 | 3092 ft | 219 kts | 339° |
| 2026-05-07 16:12 | 39.45880 | 19.95342 | 2977 ft | 214 kts | 339° |
| 2026-05-07 16:12 | 39.47227 | 19.94671 | 2785 ft | 204 kts | 341° |
| 2026-05-07 16:13 | 39.48569 | 19.94081 | 2313 ft | 204 kts | 343° |
| 2026-05-07 16:13 | 39.49913 | 19.93586 | 2019 ft | 194 kts | 348° |
| 2026-05-07 16:13 | 39.51169 | 19.93314 | 1787 ft | 179 kts | 354° |
| 2026-05-07 16:13 | 39.52386 | 19.93164 | 1455 ft | 172 kts | 356° |
| 2026-05-07 16:14 | 39.53545 | 19.92990 | 1162 ft | 164 kts | 352° |
| 2026-05-07 16:14 | 39.54631 | 19.92718 | 992 ft | 155 kts | 348° |
| 2026-05-07 16:14 | 39.55663 | 19.92393 | 774 ft | 151 kts | 348° |
| 2026-05-07 16:14 | 39.56683 | 19.92117 | 537 ft | 149 kts | 351° |
| 2026-05-07 16:15 | 39.57694 | 19.91846 | 395 ft | 148 kts | 350° |
| 2026-05-07 16:15 | 39.58696 | 19.91588 | 190 ft | 146 kts | 352° |
| 2026-05-07 16:15 | 39.59685 | 19.91346 | 21 ft | 141 kts | 347° |
| 2026-05-07 16:15 | 39.60360 | 19.91172 | 20 ft | 57 kts | 349° |
| 2026-05-07 16:16 | 39.60697 | 19.91086 | 19 ft | 42 kts | 349° |
| 2026-05-07 16:16 | 39.60931 | 19.91026 | 19 ft | 20 kts | 348° |
| 2026-05-07 16:16 | 39.61028 | 19.91040 | 19 ft | 13 kts | 41° |
| 2026-05-07 16:16 | 39.61040 | 19.91123 | 20 ft | 10 kts | 147° |
| 2026-05-07 16:17 | 39.60974 | 19.91144 | 19 ft | 10 kts | 168° |
| 2026-05-07 16:17 | 39.60908 | 19.91163 | 21 ft | 10 kts | 168° |
| 2026-05-07 16:17 | 39.60839 | 19.91181 | 18 ft | 10 kts | 168° |
| 2026-05-07 16:17 | 39.60769 | 19.91200 | 19 ft | 10 kts | 168° |
| 2026-05-07 16:18 | 39.60699 | 19.91217 | 19 ft | 10 kts | 169° |
| 2026-05-07 16:18 | 39.60655 | 19.91246 | 19 ft | 5 kts | 101° |
| 2026-05-07 16:18 | 39.60659 | 19.91295 | 19 ft | 5 kts | 81° |
| 2026-05-07 16:18 | 39.60665 | 19.91342 | 19 ft | 5 kts | 79° |
| 2026-05-07 16:19 | 39.60667 | 19.91353 | 19 ft | 0 kts | 79° |
| 2026-05-07 16:19 | 39.60666 | 19.91351 | 19 ft | 0 kts | 79° |